createdAt,value
2019-01-08T00:04:03.211Z,6.90
2019-01-08T00:08:58.742Z,6.90
2019-01-08T00:13:53.258Z,6.80
2019-01-08T00:18:47.568Z,6.80
2019-01-08T00:23:41.477Z,6.70
2019-01-08T00:28:43.031Z,6.70
2019-01-08T00:33:32.077Z,6.80
2019-01-08T00:38:26.443Z,6.80
2019-01-08T00:43:23.264Z,6.90
2019-01-08T00:48:18.158Z,6.90
2019-01-08T00:53:12.809Z,6.90
2019-01-08T00:58:10.360Z,7.00
2019-01-08T01:03:04.115Z,7.00
2019-01-08T01:07:58.344Z,7.00
2019-01-08T01:12:53.135Z,6.90
2019-01-08T01:17:49.046Z,7.00
2019-01-08T01:22:43.904Z,7.00
2019-01-08T01:27:38.237Z,7.00
2019-01-08T01:32:32.508Z,6.90
2019-01-08T01:37:27.211Z,6.80
2019-01-08T01:42:21.511Z,6.80
2019-01-08T01:47:15.810Z,6.80
2019-01-08T01:52:09.763Z,6.70
2019-01-08T01:57:03.796Z,6.70
2019-01-08T02:01:59.003Z,6.60
2019-01-08T02:06:56.625Z,6.50
2019-01-08T02:11:51.208Z,6.50
2019-01-08T02:16:46.797Z,6.50
2019-01-08T02:21:40.639Z,6.40
2019-01-08T02:26:34.916Z,6.40
2019-01-08T02:31:30.040Z,6.50
2019-01-08T02:36:23.903Z,6.50
2019-01-08T02:41:17.821Z,6.50
2019-01-08T02:46:12.518Z,6.50
2019-01-08T02:51:06.619Z,6.50
2019-01-08T02:56:00.762Z,6.50
2019-01-08T03:01:06.724Z,6.40
2019-01-08T03:06:01.087Z,6.40
2019-01-08T03:10:54.945Z,6.40
2019-01-08T03:15:48.727Z,6.50
2019-01-08T03:20:43.064Z,6.40
2019-01-08T03:25:37.672Z,6.40
2019-01-08T03:30:32.959Z,6.30
2019-01-08T03:35:27.382Z,6.30
2019-01-08T03:40:21.385Z,6.40
2019-01-08T03:45:15.278Z,6.30
2019-01-08T03:50:10.342Z,6.40
2019-01-08T03:55:05.294Z,6.40
2019-01-08T04:00:02.197Z,6.30
2019-01-08T04:04:56.913Z,6.30
2019-01-08T04:09:51.375Z,6.40
2019-01-08T04:14:45.680Z,6.40
2019-01-08T04:19:39.543Z,6.30
2019-01-08T04:24:33.427Z,6.40
2019-01-08T04:29:27.643Z,6.40
2019-01-08T04:34:22.490Z,6.50
2019-01-08T04:39:16.432Z,6.50
2019-01-08T04:44:10.662Z,6.40
2019-01-08T04:49:05.686Z,6.50
2019-01-08T04:53:59.519Z,6.50
2019-01-08T04:58:54.374Z,6.50
2019-01-08T05:03:48.180Z,6.60
2019-01-08T05:08:42.031Z,6.60
2019-01-08T05:13:36.694Z,6.60
2019-01-08T05:18:30.956Z,6.60
2019-01-08T05:23:24.890Z,6.60
2019-01-08T05:28:18.807Z,6.50
2019-01-08T05:33:13.703Z,6.50
2019-01-08T05:38:08.730Z,6.50
2019-01-08T05:43:03.689Z,6.50
2019-01-08T05:47:59.612Z,6.50
2019-01-08T05:52:54.243Z,6.60
2019-01-08T05:57:48.628Z,6.60
2019-01-08T06:02:45.308Z,6.60
2019-01-08T06:07:39.400Z,6.60
2019-01-08T06:12:33.341Z,6.60
2019-01-08T06:17:28.897Z,6.60
2019-01-08T06:22:23.519Z,6.50
2019-01-08T06:27:18.332Z,6.50
2019-01-08T06:32:14.464Z,6.50
2019-01-08T06:37:09.537Z,6.50
2019-01-08T06:42:05.855Z,6.50
2019-01-08T06:46:59.919Z,6.50
2019-01-08T06:51:53.792Z,6.50
2019-01-08T06:56:47.661Z,6.40
2019-01-08T07:01:42.623Z,6.30
2019-01-08T07:06:36.703Z,6.30
2019-01-08T07:11:30.562Z,6.20
2019-01-08T07:16:26.396Z,6.20
2019-01-08T07:21:21.831Z,6.30
2019-01-08T07:26:16.053Z,6.20
2019-01-08T07:31:11.054Z,6.10
2019-01-08T07:36:10.950Z,6.20
2019-01-08T07:41:06.833Z,6.40
2019-01-08T07:46:04.014Z,6.80
2019-01-08T07:50:59.828Z,7.20
2019-01-08T07:55:54.444Z,7.60
2019-01-08T08:00:50.162Z,9.00
2019-01-08T08:05:46.687Z,8.70
2019-01-08T08:10:42.935Z,8.30
2019-01-08T08:15:39.824Z,7.90
2019-01-08T08:20:34.137Z,7.60
2019-01-08T08:25:33.402Z,7.50
2019-01-08T08:30:27.448Z,7.40
2019-01-08T08:35:23.744Z,7.50
2019-01-08T08:40:17.784Z,7.50
2019-01-08T08:45:14.886Z,7.50
2019-01-08T08:50:10.816Z,7.60
2019-01-08T08:55:05.694Z,7.60
2019-01-08T09:00:03.684Z,7.60
2019-01-08T09:04:58.512Z,7.80
2019-01-08T09:10:00.721Z,8.00
2019-01-08T09:14:59.378Z,8.10
2019-01-08T09:19:54.027Z,8.00
2019-01-08T09:24:47.948Z,8.10
2019-01-08T09:29:42.767Z,8.30
2019-01-08T09:34:37.091Z,8.30
2019-01-08T09:39:32.331Z,8.40
2019-01-08T09:44:28.419Z,8.40
2019-01-08T09:49:27.373Z,8.30
2019-01-08T09:54:24.029Z,8.20
2019-01-08T09:59:17.910Z,8.20
2019-01-08T10:04:17.034Z,8.40
2019-01-08T10:09:12.852Z,8.70
2019-01-08T10:14:09.142Z,8.70
2019-01-08T10:19:05.644Z,8.50
2019-01-08T10:24:02.245Z,8.50
2019-01-08T10:28:56.709Z,9.90
2019-01-08T10:33:51.970Z,12.10
2019-01-08T10:38:45.907Z,14.90
2019-01-08T10:43:43.199Z,15.00
2019-01-08T10:48:38.305Z,12.90
2019-01-08T10:53:34.475Z,11.00
2019-01-08T10:58:28.462Z,9.80
2019-01-08T11:03:23.696Z,9.00
2019-01-08T11:08:22.512Z,8.70
2019-01-08T11:13:19.472Z,8.40
2019-01-08T11:18:15.499Z,8.10
2019-01-08T11:23:10.648Z,8.00
2019-01-08T11:28:05.524Z,8.00
2019-01-08T11:33:00.601Z,8.00
2019-01-08T11:37:55.523Z,8.10
2019-01-08T11:42:52.800Z,8.40
2019-01-08T11:47:52.676Z,9.70
2019-01-08T11:52:48.161Z,10.70
2019-01-08T11:58:01.452Z,9.90
2019-01-08T12:02:56.989Z,8.90
2019-01-08T12:07:50.925Z,8.20
2019-01-08T12:12:49.416Z,7.80
2019-01-08T12:17:44.106Z,7.60
2019-01-08T12:22:41.033Z,7.50
2019-01-08T12:27:56.178Z,7.50
2019-01-08T12:32:51.571Z,7.60
2019-01-08T12:37:52.523Z,7.60
2019-01-08T12:42:47.042Z,7.60
2019-01-08T12:47:42.894Z,7.60
2019-01-08T12:52:38.428Z,7.70
2019-01-08T12:57:32.283Z,7.60
2019-01-08T13:02:29.004Z,7.60
2019-01-08T13:07:24.876Z,7.50
2019-01-08T13:12:21.434Z,7.40
2019-01-08T13:17:17.835Z,7.20
2019-01-08T13:22:12.402Z,7.20
2019-01-08T13:27:06.938Z,7.10
2019-01-08T13:32:00.905Z,7.00
2019-01-08T13:36:57.230Z,7.00
2019-01-08T13:41:53.398Z,7.00
2019-01-08T13:46:48.296Z,7.00
2019-01-08T13:51:42.696Z,7.00
2019-01-08T13:56:36.913Z,7.00
2019-01-08T14:01:31.113Z,7.00
2019-01-08T14:06:25.160Z,7.00
2019-01-08T14:11:21.546Z,7.00
2019-01-08T14:16:16.933Z,7.10
2019-01-08T14:21:10.919Z,7.20
2019-01-08T14:26:07.189Z,7.20
2019-01-08T14:31:04.072Z,7.20
2019-01-08T14:35:59.293Z,7.20
2019-01-08T14:40:53.823Z,7.30
2019-01-08T14:45:48.078Z,7.30
2019-01-08T14:50:42.395Z,7.40
2019-01-08T14:55:36.916Z,7.50
2019-01-08T15:00:31.201Z,7.50
2019-01-08T15:05:25.976Z,7.40
2019-01-08T15:10:22.119Z,7.40
2019-01-08T15:15:16.453Z,7.30
2019-01-08T15:20:13.822Z,7.30
2019-01-08T15:25:09.758Z,7.10
2019-01-08T15:30:04.498Z,7.10
2019-01-08T15:34:59.842Z,7.10
2019-01-08T15:39:58.539Z,7.10
2019-01-08T15:44:54.711Z,7.00
2019-01-08T15:49:49.979Z,7.00
2019-01-08T15:54:45.108Z,6.90
2019-01-08T15:59:40.685Z,7.00
2019-01-08T16:04:37.535Z,6.90
2019-01-08T16:09:31.577Z,7.00
2019-01-08T16:14:27.547Z,7.10
2019-01-08T16:19:21.809Z,7.10
2019-01-08T16:24:16.097Z,7.20
2019-01-08T16:29:10.273Z,7.10
2019-01-08T16:34:05.548Z,7.00
2019-01-08T16:39:00.729Z,7.00
2019-01-08T16:43:54.930Z,7.00
2019-01-08T16:48:50.459Z,6.90
2019-01-08T16:53:46.935Z,6.90
2019-01-08T16:58:41.086Z,6.80
2019-01-08T17:03:36.478Z,6.90
2019-01-08T17:08:32.875Z,6.90
2019-01-08T17:13:26.779Z,7.00
2019-01-08T17:18:20.674Z,6.90
2019-01-08T17:23:18.083Z,6.90
2019-01-08T17:28:12.810Z,6.80
2019-01-08T17:33:06.788Z,6.80
2019-01-08T17:38:02.840Z,6.80
2019-01-08T17:42:56.868Z,6.80
2019-01-08T17:47:51.517Z,6.70
2019-01-08T17:52:45.501Z,6.80
2019-01-08T17:58:18.666Z,6.80
2019-01-08T18:03:14.358Z,6.90
2019-01-08T18:08:10.139Z,6.80
2019-01-08T18:13:05.755Z,6.70
2019-01-08T18:18:00.344Z,6.60
2019-01-08T18:22:54.880Z,6.40
2019-01-08T18:27:49.374Z,6.30
2019-01-08T18:32:44.095Z,6.20
2019-01-08T18:37:38.188Z,6.10
2019-01-08T18:42:32.695Z,6.10
2019-01-08T18:47:27.056Z,6.00
2019-01-08T18:52:22.635Z,6.00
2019-01-08T18:57:16.777Z,5.90
2019-01-08T19:02:13.081Z,5.90
2019-01-08T19:07:07.050Z,5.80
2019-01-08T19:12:01.048Z,5.90
2019-01-08T19:16:58.011Z,5.80
2019-01-08T19:21:52.220Z,5.90
2019-01-08T19:26:48.772Z,5.80
2019-01-08T19:31:44.562Z,5.80
2019-01-08T19:36:40.543Z,5.80
2019-01-08T19:41:34.378Z,5.80
2019-01-08T19:46:31.793Z,5.80
2019-01-08T19:51:26.709Z,5.80
2019-01-08T19:56:21.833Z,5.80
2019-01-08T20:01:17.659Z,5.80
2019-01-08T20:06:11.990Z,5.70
2019-01-08T20:11:07.126Z,5.60
2019-01-08T20:16:05.030Z,5.40
2019-01-08T20:21:03.901Z,5.30
2019-01-08T20:25:59.269Z,5.30
2019-01-08T20:30:53.110Z,5.10
2019-01-08T20:35:49.222Z,5.00
2019-01-08T20:40:43.087Z,5.00
2019-01-08T20:45:38.877Z,5.00
2019-01-08T20:50:33.861Z,4.90
2019-01-08T20:55:28.267Z,4.90
2019-01-08T21:00:23.717Z,4.90
2019-01-08T21:05:19.284Z,5.00
2019-01-08T21:10:13.654Z,5.00
2019-01-08T21:15:08.421Z,4.90
2019-01-08T21:20:04.907Z,5.00
2019-01-08T21:24:59.286Z,5.00
2019-01-08T21:29:53.381Z,4.90
2019-01-08T21:34:50.564Z,4.90
2019-01-08T21:39:46.740Z,4.90
2019-01-08T21:44:41.006Z,4.80
2019-01-08T21:49:36.696Z,4.90
2019-01-08T21:54:30.645Z,4.90
2019-01-08T21:59:28.068Z,4.80
2019-01-08T22:04:22.085Z,4.90
2019-01-08T22:09:17.826Z,4.90
2019-01-08T22:14:12.545Z,4.90
2019-01-08T22:19:08.283Z,4.90
2019-01-08T22:24:07.870Z,4.90
2019-01-08T22:29:04.604Z,4.80
2019-01-08T22:33:58.718Z,4.70
2019-01-08T22:38:52.576Z,4.70
2019-01-08T22:43:46.847Z,4.60
2019-01-08T22:48:42.662Z,4.40
2019-01-08T22:53:37.803Z,4.10
2019-01-08T22:58:36.352Z,4.00
2019-01-08T23:03:32.303Z,3.90
2019-01-08T23:08:29.060Z,3.80
2019-01-08T23:13:26.845Z,3.80
2019-01-08T23:18:25.032Z,3.80
2019-01-08T23:23:19.620Z,3.80
2019-01-08T23:28:13.711Z,3.70
2019-01-08T23:33:08.241Z,3.80
2019-01-08T23:38:04.743Z,3.80
2019-01-08T23:42:58.790Z,3.90
2019-01-08T23:52:52.219Z,3.90
2019-01-08T23:57:47.232Z,4.00
